Time;durP1;ratioP1;P1;durP2;ratioP2;P2;SDS_P1;SDS_P2;PMS_P1;PMS_P2;Temp;Humidity;BMP_temperature;BMP_pressure;BME280_temperature;BME280_humidity;BME280_pressure;Samples;Min_cycle;Max_cycle;Signal;HPM_P1;HPM_P2
2021/05/29 00:00:48;;;;;;;18.08;9.77;;;9.40;99.90;;;;;;5010665;28;20048;-82
2021/05/29 00:03:14;;;;;;;14.35;9.40;;;9.40;99.90;;;;;;5011560;28;20026;-82
2021/05/29 00:05:40;;;;;;;22.45;10.00;;;9.40;99.90;;;;;;5011620;28;20390;-82
2021/05/29 00:08:07;;;;;;;17.55;9.48;;;9.40;99.90;;;;;;5011709;28;20177;-82
2021/05/29 00:10:34;;;;;;;22.25;10.25;;;9.30;99.90;;;;;;5010586;28;20036;-82
2021/05/29 00:13:00;;;;;;;25.05;9.93;;;9.40;99.90;;;;;;5010167;28;20025;-82
2021/05/29 00:15:27;;;;;;;18.38;9.73;;;9.40;99.90;;;;;;5011609;28;20076;-82
2021/05/29 00:17:53;;;;;;;20.98;9.70;;;9.40;99.90;;;;;;5011648;28;20026;-82
2021/05/29 00:20:18;;;;;;;25.95;9.90;;;9.40;99.90;;;;;;5011582;28;20025;-82
2021/05/29 00:22:44;;;;;;;23.10;9.70;;;9.40;99.90;;;;;;5011443;28;20840;-82
2021/05/29 00:25:10;;;;;;;21.00;10.57;;;9.40;99.90;;;;;;5010301;28;20038;-82
2021/05/29 00:27:35;;;;;;;19.33;9.27;;;9.40;99.90;;;;;;5010062;28;20494;-82
2021/05/29 00:30:01;;;;;;;21.15;10.48;;;9.40;99.90;;;;;;5010363;28;20025;-82
2021/05/29 00:32:26;;;;;;;26.52;10.65;;;9.40;99.90;;;;;;5009988;28;20502;-82
2021/05/29 00:34:52;;;;;;;30.08;10.98;;;9.40;99.90;;;;;;4990392;28;20113;-82
2021/05/29 00:37:18;;;;;;;25.90;11.25;;;9.40;99.90;;;;;;5007388;28;20360;-81
2021/05/29 00:39:43;;;;;;;22.10;11.20;;;9.40;99.90;;;;;;4994300;28;20023;-82
2021/05/29 00:42:09;;;;;;;23.65;9.15;;;9.30;99.90;;;;;;4997263;28;20033;-82
2021/05/29 00:45:04;;;;;;;19.67;8.85;;;9.30;99.90;;;;;;5014791;28;20442;-82
2021/05/29 00:47:30;;;;;;;20.98;9.18;;;9.30;99.90;;;;;;5006258;28;20572;-82
2021/05/29 00:49:58;;;;;;;22.90;9.32;;;9.30;99.90;;;;;;5014839;28;20034;-82
2021/05/29 00:52:25;;;;;;;20.38;9.30;;;9.30;99.90;;;;;;5014483;28;20041;-82
2021/05/29 00:54:51;;;;;;;20.10;9.48;;;9.30;99.90;;;;;;5014585;28;20100;-82
2021/05/29 00:57:17;;;;;;;31.27;9.05;;;9.30;99.90;;;;;;5013156;28;20391;-82
2021/05/29 00:59:44;;;;;;;17.10;8.13;;;9.20;99.90;;;;;;5014729;28;20026;-82
2021/05/29 01:02:13;;;;;;;11.70;7.90;;;9.20;99.90;;;;;;5013305;28;20109;-82
2021/05/29 01:04:39;;;;;;;16.45;7.60;;;9.20;99.90;;;;;;5014326;28;20022;-81
2021/05/29 01:07:09;;;;;;;22.00;7.63;;;9.20;99.90;;;;;;5014275;28;20025;-81
2021/05/29 01:09:39;;;;;;;16.50;7.78;;;9.20;99.90;;;;;;5009942;28;20463;-82
2021/05/29 01:12:06;;;;;;;13.48;7.10;;;9.20;99.90;;;;;;4996396;28;20026;-82
2021/05/29 01:14:33;;;;;;;14.25;8.25;;;9.20;99.90;;;;;;5012839;28;20021;-82
2021/05/29 01:17:00;;;;;;;21.55;8.10;;;9.10;99.90;;;;;;5013092;28;20088;-82
2021/05/29 01:19:27;;;;;;;17.15;9.05;;;9.10;99.90;;;;;;5013074;28;20034;-82
2021/05/29 01:21:53;;;;;;;21.25;9.25;;;9.10;99.90;;;;;;5013155;28;20041;-82
2021/05/29 01:24:21;;;;;;;15.98;8.73;;;9.10;99.90;;;;;;5014136;28;20029;-82
2021/05/29 01:26:48;;;;;;;16.05;8.70;;;9.10;99.90;;;;;;5013454;28;20462;-82
2021/05/29 01:29:14;;;;;;;29.15;10.95;;;9.10;99.90;;;;;;5012811;28;20034;-81
2021/05/29 01:31:42;;;;;;;21.15;9.68;;;9.10;99.90;;;;;;5014007;28;20052;-82
2021/05/29 01:34:11;;;;;;;25.23;10.30;;;9.10;99.90;;;;;;5012732;28;20045;-82
2021/05/29 01:36:39;;;;;;;21.02;9.65;;;9.10;99.90;;;;;;5013409;28;20099;-82
2021/05/29 01:39:07;;;;;;;18.80;8.82;;;9.20;99.90;;;;;;5012620;28;20026;-82
2021/05/29 01:41:33;;;;;;;23.92;8.73;;;9.20;99.90;;;;;;5012565;28;20045;-81
2021/05/29 01:44:00;;;;;;;17.25;9.00;;;9.20;99.90;;;;;;5013458;28;20025;-81
2021/05/29 01:46:25;;;;;;;20.48;8.65;;;9.20;99.90;;;;;;5013624;28;20040;-82
2021/05/29 01:48:52;;;;;;;21.30;9.10;;;9.20;99.90;;;;;;5012708;28;20017;-82
2021/05/29 01:51:20;;;;;;;26.70;10.05;;;9.20;99.90;;;;;;5012221;28;20037;-83
2021/05/29 01:53:46;;;;;;;16.85;8.30;;;9.20;99.90;;;;;;5013483;28;20018;-82
2021/05/29 01:56:12;;;;;;;20.67;9.15;;;9.10;99.90;;;;;;5012186;28;20022;-82
2021/05/29 01:58:39;;;;;;;22.77;9.55;;;9.20;99.90;;;;;;5012029;28;20030;-82
2021/05/29 02:01:06;;;;;;;17.77;9.27;;;9.10;99.90;;;;;;5012375;28;20030;-82
2021/05/29 02:03:32;;;;;;;15.70;8.20;;;9.10;99.90;;;;;;5012176;28;20104;-82
2021/05/29 02:05:58;;;;;;;22.27;9.35;;;9.10;99.90;;;;;;5012002;28;20471;-82
2021/05/29 02:08:24;;;;;;;19.10;8.15;;;9.10;99.90;;;;;;5011839;28;20018;-82
2021/05/29 02:10:49;;;;;;;19.10;8.90;;;9.10;99.90;;;;;;5013301;28;20065;-82
2021/05/29 02:13:23;;;;;;;16.70;8.40;;;9.10;99.90;;;;;;5011438;28;20064;-82
2021/05/29 02:15:50;;;;;;;24.92;10.43;;;9.10;99.90;;;;;;5013132;28;20088;-82
2021/05/29 02:18:16;;;;;;;24.67;9.05;;;9.10;99.90;;;;;;5011548;28;20032;-82
2021/05/29 02:20:45;;;;;;;17.70;9.32;;;9.10;99.90;;;;;;5012033;28;20029;-82
2021/05/29 02:23:16;;;;;;;20.05;8.77;;;9.10;99.90;;;;;;5013146;28;20106;-82
2021/05/29 02:25:43;;;;;;;19.98;10.00;;;9.10;99.90;;;;;;5011510;28;20026;-82
2021/05/29 02:28:09;;;;;;;19.73;9.02;;;9.10;99.90;;;;;;5010418;28;20108;-82
2021/05/29 02:30:35;;;;;;;21.95;8.10;;;9.20;99.90;;;;;;5012528;28;20087;-82
2021/05/29 02:33:01;;;;;;;20.10;8.90;;;9.20;99.90;;;;;;5011657;28;20069;-82
2021/05/29 02:35:27;;;;;;;22.38;9.07;;;9.10;99.90;;;;;;5012689;28;20045;-82
2021/05/29 02:37:53;;;;;;;23.67;9.63;;;9.10;99.90;;;;;;5011072;28;20021;-82
2021/05/29 02:40:19;;;;;;;23.77;9.43;;;9.10;99.90;;;;;;5011491;28;20526;-81
2021/05/29 02:42:44;;;;;;;16.75;9.98;;;9.00;99.90;;;;;;5012488;28;20037;-82
2021/05/29 02:45:11;;;;;;;22.98;10.73;;;9.10;99.90;;;;;;5011329;28;20107;-82
2021/05/29 02:47:36;;;;;;;24.30;9.57;;;9.10;99.90;;;;;;5011136;28;20069;-82
2021/05/29 02:50:03;;;;;;;23.30;9.88;;;9.10;99.90;;;;;;5011470;28;20050;-82
2021/05/29 02:52:29;;;;;;;20.67;9.50;;;9.10;99.90;;;;;;5012519;28;20462;-82
2021/05/29 02:54:54;;;;;;;25.00;9.27;;;9.10;99.90;;;;;;5011133;28;20045;-82
2021/05/29 02:57:20;;;;;;;22.67;10.77;;;9.10;99.90;;;;;;5012199;28;20022;-82
2021/05/29 02:59:45;;;;;;;27.02;9.65;;;9.10;99.90;;;;;;5011319;28;20096;-82
2021/05/29 03:02:12;;;;;;;27.67;9.40;;;9.10;99.90;;;;;;5012434;28;20037;-82
2021/05/29 03:04:38;;;;;;;19.75;9.68;;;9.10;99.90;;;;;;5012382;28;20034;-82
2021/05/29 03:07:04;;;;;;;19.08;9.13;;;9.20;99.90;;;;;;5010879;28;20030;-82
2021/05/29 03:09:31;;;;;;;19.42;9.90;;;9.10;99.90;;;;;;4992142;28;20084;-82
2021/05/29 03:11:57;;;;;;;23.13;9.85;;;9.10;99.90;;;;;;4992967;28;20030;-82
2021/05/29 03:14:22;;;;;;;17.42;8.50;;;9.10;99.90;;;;;;5010977;28;20028;-82
2021/05/29 03:16:48;;;;;;;19.92;9.15;;;9.10;99.90;;;;;;5011672;28;20033;-82
2021/05/29 03:19:14;;;;;;;24.40;9.15;;;9.10;99.90;;;;;;5011973;28;20105;-82
2021/05/29 03:21:40;;;;;;;19.23;9.90;;;9.10;99.90;;;;;;5010853;28;20068;-82
2021/05/29 03:24:06;;;;;;;18.60;9.60;;;9.00;99.90;;;;;;5012020;28;20073;-82
2021/05/29 03:26:32;;;;;;;24.63;9.88;;;9.00;99.90;;;;;;5010924;28;20026;-82
2021/05/29 03:28:57;;;;;;;20.85;9.18;;;9.00;99.90;;;;;;5011883;28;20037;-82
2021/05/29 03:31:23;;;;;;;23.15;10.25;;;9.00;99.90;;;;;;5012008;28;20030;-82
2021/05/29 03:33:48;;;;;;;22.42;10.85;;;9.00;99.90;;;;;;5010630;28;20058;-82
2021/05/29 03:36:14;;;;;;;20.88;9.20;;;9.00;99.90;;;;;;5010521;28;20096;-82
2021/05/29 03:38:41;;;;;;;21.95;8.77;;;8.90;99.90;;;;;;5011797;28;20389;-82
2021/05/29 03:41:07;;;;;;;17.30;9.18;;;8.90;99.90;;;;;;5012032;28;20097;-82
2021/05/29 03:43:33;;;;;;;23.73;8.88;;;8.90;99.90;;;;;;5010399;28;20117;-82
2021/05/29 03:45:58;;;;;;;18.30;8.48;;;8.90;99.90;;;;;;5011652;28;20390;-82
2021/05/29 03:48:24;;;;;;;19.30;9.95;;;8.80;99.90;;;;;;5011959;28;20455;-82
2021/05/29 03:50:49;;;;;;;20.55;8.90;;;8.80;99.90;;;;;;5011898;28;20026;-82
2021/05/29 03:53:15;;;;;;;15.60;8.80;;;8.80;99.90;;;;;;5010261;28;20030;-82
2021/05/29 03:55:40;;;;;;;26.85;8.73;;;8.90;99.90;;;;;;5010426;28;20117;-82
2021/05/29 03:58:06;;;;;;;20.45;10.32;;;8.90;99.90;;;;;;5010226;28;20030;-82
2021/05/29 04:00:32;;;;;;;24.98;9.43;;;8.90;99.90;;;;;;5011849;28;20088;-82
2021/05/29 04:02:58;;;;;;;23.27;9.23;;;8.80;99.90;;;;;;5011624;28;20026;-82
2021/05/29 04:05:25;;;;;;;23.02;11.20;;;8.80;99.90;;;;;;5011634;28;20529;-82
2021/05/29 04:07:51;;;;;;;23.42;11.57;;;8.90;99.90;;;;;;5010393;28;20030;-82
2021/05/29 04:10:19;;;;;;;25.95;11.00;;;8.90;99.90;;;;;;5011772;28;20030;-82
2021/05/29 04:12:46;;;;;;;28.48;12.25;;;8.90;99.90;;;;;;5011192;28;20034;-82
2021/05/29 04:15:13;;;;;;;20.92;11.38;;;8.90;99.90;;;;;;5015365;28;20018;-82
2021/05/29 04:17:39;;;;;;;20.17;10.18;;;8.90;99.90;;;;;;5014561;28;20025;-82
2021/05/29 04:20:07;;;;;;;17.63;9.63;;;8.90;99.90;;;;;;5014052;28;20137;-82
2021/05/29 04:22:32;;;;;;;19.13;10.30;;;8.90;99.90;;;;;;5013778;28;20045;-82
2021/05/29 04:24:58;;;;;;;25.23;14.35;;;9.00;99.90;;;;;;5013910;28;20088;-82
2021/05/29 04:27:24;;;;;;;97.32;48.83;;;9.00;99.90;;;;;;5014815;28;20390;-82
2021/05/29 04:29:50;;;;;;;40.03;23.55;;;9.00;99.90;;;;;;5013925;28;20069;-82
2021/05/29 04:32:15;;;;;;;33.30;14.68;;;9.10;99.90;;;;;;5015094;28;20026;-82
2021/05/29 04:34:41;;;;;;;27.70;11.60;;;9.10;99.90;;;;;;5014649;28;20030;-82
2021/05/29 04:37:07;;;;;;;28.70;14.07;;;9.10;99.90;;;;;;5013649;28;20030;-82
2021/05/29 04:39:32;;;;;;;25.20;13.35;;;9.10;99.90;;;;;;5013791;28;20084;-82
2021/05/29 04:41:58;;;;;;;20.90;11.23;;;9.10;99.90;;;;;;5013399;28;20069;-82
2021/05/29 04:44:24;;;;;;;24.08;12.95;;;9.10;99.90;;;;;;5014688;28;20034;-82
2021/05/29 04:46:53;;;;;;;24.92;12.25;;;9.10;99.90;;;;;;5013627;28;20029;-82
2021/05/29 04:49:22;;;;;;;25.95;12.98;;;9.10;99.90;;;;;;5014843;28;20053;-82
2021/05/29 04:51:48;;;;;;;18.08;10.25;;;9.20;99.90;;;;;;5013501;28;20022;-82
2021/05/29 04:54:14;;;;;;;16.85;10.05;;;9.20;99.90;;;;;;5014328;28;20103;-82
2021/05/29 04:56:40;;;;;;;20.27;9.88;;;9.20;99.90;;;;;;5014655;28;20029;-80
2021/05/29 04:59:06;;;;;;;21.45;10.10;;;9.10;99.90;;;;;;5013086;28;20111;-82
2021/05/29 05:01:32;;;;;;;35.97;13.85;;;9.10;99.90;;;;;;5013327;28;20071;-81
2021/05/29 05:03:59;;;;;;;29.80;10.00;;;9.10;99.90;;;;;;5012916;28;20037;-82
2021/05/29 05:06:25;;;;;;;22.23;9.52;;;9.10;99.90;;;;;;5014459;28;20471;-82
2021/05/29 05:08:50;;;;;;;22.70;9.25;;;9.20;99.90;;;;;;5014480;28;20105;-81
2021/05/29 05:11:16;;;;;;;21.55;9.57;;;9.10;99.90;;;;;;5014400;28;20045;-82
2021/05/29 05:13:42;;;;;;;28.27;9.95;;;9.00;99.90;;;;;;5012768;28;20441;-82
2021/05/29 05:16:07;;;;;;;19.27;9.20;;;9.00;99.90;;;;;;5014206;28;20022;-82
2021/05/29 05:18:33;;;;;;;64.20;19.20;;;9.00;99.90;;;;;;5012979;28;20029;-82
2021/05/29 05:20:58;;;;;;;74.60;17.95;;;9.00;99.90;;;;;;5014276;28;20026;-82
2021/05/29 05:23:24;;;;;;;31.05;12.57;;;9.10;99.90;;;;;;5013643;28;20056;-82
2021/05/29 05:25:52;;;;;;;39.08;11.10;;;9.10;99.90;;;;;;5013256;28;20029;-82
2021/05/29 05:28:19;;;;;;;61.22;18.42;;;9.20;99.90;;;;;;5012471;28;20033;-82
2021/05/29 05:30:45;;;;;;;31.83;12.23;;;9.20;99.90;;;;;;5012797;28;20113;-82
2021/05/29 05:33:11;;;;;;;46.80;14.15;;;9.30;99.90;;;;;;5012726;28;20645;-82
2021/05/29 05:35:37;;;;;;;35.53;12.30;;;9.40;99.90;;;;;;5012548;28;20371;-82
2021/05/29 05:38:03;;;;;;;23.20;8.23;;;9.30;99.90;;;;;;5012528;28;20096;-82
2021/05/29 05:40:29;;;;;;;29.92;10.43;;;9.20;99.90;;;;;;5013879;28;20030;-82
2021/05/29 05:42:54;;;;;;;31.15;9.35;;;9.20;99.90;;;;;;5012225;28;20041;-82
2021/05/29 05:45:20;;;;;;;22.23;7.70;;;9.30;99.90;;;;;;5012261;28;20030;-81
2021/05/29 05:47:45;;;;;;;32.55;10.27;;;9.20;99.90;;;;;;5013703;28;20048;-82
2021/05/29 05:50:12;;;;;;;44.13;13.82;;;9.40;99.90;;;;;;5012513;28;20141;-82
2021/05/29 05:52:38;;;;;;;26.08;10.48;;;9.30;99.90;;;;;;5013332;28;20030;-82
2021/05/29 05:55:07;;;;;;;32.22;14.48;;;9.30;99.90;;;;;;5028390;28;20026;-82
2021/05/29 05:57:34;;;;;;;15.13;8.73;;;9.30;99.90;;;;;;5011982;28;20066;-82
2021/05/29 06:00:00;;;;;;;32.78;10.80;;;9.40;99.90;;;;;;5013431;28;20046;-82
2021/05/29 06:02:26;;;;;;;31.00;11.07;;;9.40;99.90;;;;;;5010187;28;20121;-82
2021/05/29 06:04:53;;;;;;;19.60;9.27;;;9.40;99.90;;;;;;5011666;28;20113;-82
2021/05/29 06:07:19;;;;;;;21.10;9.93;;;9.40;99.90;;;;;;5011827;28;20048;-82
2021/05/29 06:09:44;;;;;;;30.33;10.98;;;9.40;99.90;;;;;;5013230;28;20553;-82
2021/05/29 06:12:10;;;;;;;21.92;10.10;;;9.40;99.90;;;;;;5012649;28;20108;-82
2021/05/29 06:20:09;;;;;;;16.58;9.75;;;9.40;99.90;;;;;;5013392;28;19928;-82
2021/05/29 06:22:34;;;;;;;49.97;16.48;;;9.50;99.90;;;;;;5012775;28;20030;-82
2021/05/29 06:25:00;;;;;;;28.52;12.35;;;9.50;99.90;;;;;;5011429;28;20623;-82
2021/05/29 06:27:25;;;;;;;37.58;14.10;;;9.60;99.90;;;;;;5012611;28;20057;-82
2021/05/29 06:29:51;;;;;;;22.95;11.48;;;9.60;99.90;;;;;;5011650;28;20026;-82
2021/05/29 06:32:16;;;;;;;31.35;13.70;;;9.70;99.90;;;;;;5011584;28;20483;-82
2021/05/29 06:34:42;;;;;;;29.45;14.25;;;9.90;99.90;;;;;;5011065;28;20372;-83
2021/05/29 06:37:07;;;;;;;37.60;17.02;;;9.70;99.90;;;;;;5012433;28;20091;-83
2021/05/29 06:39:33;;;;;;;31.70;13.02;;;9.80;99.90;;;;;;5011365;28;20026;-82
2021/05/29 06:42:00;;;;;;;26.15;13.07;;;9.80;99.90;;;;;;5012439;28;20057;-83
2021/05/29 06:44:25;;;;;;;36.95;13.57;;;9.80;99.90;;;;;;5011127;28;20116;-82
2021/05/29 06:46:51;;;;;;;32.65;13.73;;;9.70;99.90;;;;;;5011317;28;20165;-82
2021/05/29 06:49:20;;;;;;;36.50;15.55;;;9.70;99.90;;;;;;5012560;28;20030;-83
2021/05/29 06:51:54;;;;;;;27.13;12.55;;;9.80;99.90;;;;;;5011158;28;20080;-83
2021/05/29 06:54:39;;;;;;;25.33;10.98;;;9.90;99.90;;;;;;5010781;28;20458;-83
2021/05/29 06:59:48;;;;;;;21.17;10.88;;;9.90;99.90;;;;;;4992867;28;20041;-82
2021/05/29 07:02:14;;;;;;;30.20;10.00;;;10.00;99.90;;;;;;4992858;28;20027;-83
2021/05/29 07:04:40;;;;;;;28.63;11.32;;;10.00;99.90;;;;;;5010560;28;20075;-82
2021/05/29 07:07:06;;;;;;;28.52;12.20;;;10.00;99.90;;;;;;5010971;28;20032;-82
2021/05/29 07:09:32;;;;;;;28.65;10.48;;;9.80;99.90;;;;;;5011012;28;20112;-82
2021/05/29 07:11:57;;;;;;;19.77;9.23;;;10.00;99.90;;;;;;5011984;28;20574;-82
2021/05/29 07:14:23;;;;;;;26.08;9.25;;;10.00;99.90;;;;;;5010758;28;20117;-82
2021/05/29 07:16:53;;;;;;;22.80;8.52;;;10.00;99.90;;;;;;5012221;28;20026;-82
2021/05/29 07:19:23;;;;;;;24.48;9.75;;;10.00;99.90;;;;;;5010859;28;20080;-82
2021/05/29 07:21:49;;;;;;;19.45;9.13;;;10.00;99.90;;;;;;5011012;28;20402;-82
2021/05/29 07:24:17;;;;;;;17.13;7.82;;;10.00;99.90;;;;;;5010348;28;20026;-83
2021/05/29 07:26:43;;;;;;;17.23;8.82;;;10.00;99.90;;;;;;5027269;28;20061;-82
2021/05/29 07:29:08;;;;;;;18.63;8.75;;;10.10;99.90;;;;;;5011913;28;20467;-83
2021/05/29 07:31:34;;;;;;;21.60;9.18;;;10.20;99.90;;;;;;5010567;28;20061;-83
2021/05/29 07:33:59;;;;;;;24.05;9.30;;;10.20;99.90;;;;;;5010117;28;20452;-82
2021/05/29 07:36:25;;;;;;;31.33;12.63;;;10.30;99.90;;;;;;5010594;28;20390;-83
2021/05/29 07:38:51;;;;;;;24.20;10.05;;;10.30;99.90;;;;;;5012083;28;20395;-82
2021/05/29 07:41:17;;;;;;;16.42;7.88;;;10.30;99.90;;;;;;5010647;28;20022;-83
2021/05/29 07:43:43;;;;;;;18.33;8.98;;;10.30;99.90;;;;;;5010241;28;20084;-82
2021/05/29 07:46:09;;;;;;;20.08;9.57;;;10.40;99.90;;;;;;5011762;28;20018;-83
2021/05/29 07:48:37;;;;;;;18.67;7.50;;;10.60;99.90;;;;;;5013194;28;20450;-82
2021/05/29 07:51:03;;;;;;;17.15;8.30;;;10.60;99.90;;;;;;5014714;28;20022;-82
2021/05/29 07:53:34;;;;;;;23.98;7.43;;;10.60;99.90;;;;;;5014453;28;20030;-83
2021/05/29 07:56:03;;;;;;;14.73;6.80;;;10.60;99.90;;;;;;5014274;28;20125;-82
2021/05/29 07:58:29;;;;;;;17.38;7.18;;;10.60;99.90;;;;;;5014260;28;20022;-82
2021/05/29 08:00:55;;;;;;;24.92;8.63;;;10.60;99.90;;;;;;5015548;28;20044;-83
2021/05/29 08:03:23;;;;;;;23.33;8.82;;;10.90;99.90;;;;;;5015514;28;20028;-82
2021/05/29 08:05:53;;;;;;;17.15;8.10;;;11.00;99.90;;;;;;5014127;28;20029;-83
2021/05/29 08:08:19;;;;;;;15.38;7.93;;;10.90;99.90;;;;;;5014742;28;20535;-84
2021/05/29 08:10:48;;;;;;;24.02;9.88;;;11.00;99.90;;;;;;5009900;28;20027;-84
2021/05/29 08:13:13;;;;;;;40.13;16.20;;;11.00;99.90;;;;;;5011748;28;20115;-82
2021/05/29 08:15:40;;;;;;;17.15;7.50;;;11.10;99.90;;;;;;5014115;28;20474;-83
2021/05/29 08:18:06;;;;;;;35.28;13.35;;;11.00;99.90;;;;;;5015286;28;20563;-84
2021/05/29 08:20:32;;;;;;;20.33;8.75;;;11.10;99.90;;;;;;5013882;28;20026;-84
2021/05/29 08:22:58;;;;;;;35.35;12.38;;;11.10;99.90;;;;;;5014103;28;20111;-85
2021/05/29 08:25:23;;;;;;;24.40;8.68;;;11.10;99.90;;;;;;5013780;28;20591;-84
2021/05/29 08:27:49;;;;;;;16.13;6.05;;;11.20;99.90;;;;;;5014724;28;20502;-84
2021/05/29 08:30:14;;;;;;;22.63;6.18;;;11.30;99.90;;;;;;5030146;28;20030;-84
2021/05/29 08:32:40;;;;;;;40.13;14.02;;;11.20;99.90;;;;;;5014910;28;20148;-83
2021/05/29 08:35:08;;;;;;;43.47;12.40;;;11.30;99.90;;;;;;5014915;28;20057;-83
2021/05/29 08:37:34;;;;;;;17.88;6.85;;;11.30;99.90;;;;;;5010354;28;20030;-83
2021/05/29 08:39:59;;;;;;;34.10;12.07;;;11.30;99.90;;;;;;5013596;28;20044;-85
2021/05/29 08:42:25;;;;;;;16.45;6.88;;;11.40;99.90;;;;;;5030052;28;20033;-84
2021/05/29 08:44:51;;;;;;;24.35;6.55;;;11.40;99.90;;;;;;5013484;28;20468;-84
2021/05/29 08:47:19;;;;;;;19.80;6.95;;;11.40;99.90;;;;;;5013476;28;20057;-84
2021/05/29 08:49:45;;;;;;;25.63;5.72;;;11.40;99.90;;;;;;5013083;28;20521;-83
2021/05/29 08:52:11;;;;;;;15.75;5.55;;;11.40;99.90;;;;;;5013133;28;20065;-83
2021/05/29 08:54:37;;;;;;;22.20;5.70;;;11.30;99.90;;;;;;5011035;28;20072;-84
2021/05/29 08:57:04;;;;;;;22.15;6.40;;;11.20;99.90;;;;;;5009989;28;20094;-86
2021/05/29 08:59:29;;;;;;;19.33;6.60;;;11.30;99.90;;;;;;5013226;28;20030;-82
2021/05/29 09:02:00;;;;;;;18.80;6.60;;;11.30;99.90;;;;;;5009745;28;20433;-82
2021/05/29 09:04:25;;;;;;;19.98;6.43;;;11.30;99.90;;;;;;5009030;28;20025;-85
2021/05/29 09:06:51;;;;;;;20.77;8.15;;;11.20;99.90;;;;;;5010203;28;20129;-86
2021/05/29 09:09:19;;;;;;;19.23;6.90;;;11.30;99.90;;;;;;5010542;28;20033;-86
2021/05/29 09:11:47;;;;;;;24.42;7.20;;;11.30;99.90;;;;;;5008734;28;20029;-86
2021/05/29 09:14:35;;;;;;;31.98;8.13;;;11.30;99.90;;;;;;5010381;28;20014;-84
2021/05/29 09:17:16;;;;;;;29.30;9.38;;;11.50;99.90;;;;;;5010444;28;20025;-85
2021/05/29 09:20:09;;;;;;;26.67;7.30;;;11.80;99.90;;;;;;5010527;28;20022;-84
2021/05/29 09:22:36;;;;;;;27.08;7.03;;;11.70;99.90;;;;;;5004973;28;20124;-86
2021/05/29 09:25:18;;;;;;;19.13;5.75;;;11.70;99.90;;;;;;5009623;28;20490;-88
2021/05/29 09:28:01;;;;;;;28.65;7.68;;;11.70;99.90;;;;;;5008582;28;20117;-84
2021/05/29 09:30:40;;;;;;;23.77;7.55;;;11.80;99.90;;;;;;5008191;28;20536;-84
2021/05/29 09:33:13;;;;;;;49.05;29.77;;;11.70;99.90;;;;;;5011039;28;20022;-84
2021/05/29 09:35:38;;;;;;;36.35;13.55;;;11.70;99.90;;;;;;5009258;28;20056;-82
2021/05/29 09:38:05;;;;;;;16.98;6.57;;;11.80;99.90;;;;;;5008258;28;20049;-86
2021/05/29 09:40:32;;;;;;;17.73;7.38;;;12.00;99.90;;;;;;5008422;28;20109;-84
2021/05/29 09:43:07;;;;;;;27.50;7.40;;;12.00;99.90;;;;;;5008146;28;20499;-84
2021/05/29 09:45:33;;;;;;;25.45;7.43;;;12.10;99.90;;;;;;5009508;28;20026;-84
2021/05/29 09:48:23;;;;;;;25.52;8.10;;;12.30;99.90;;;;;;5009449;28;20033;-83
2021/05/29 09:50:59;;;;;;;14.30;6.15;;;12.50;99.90;;;;;;5006560;28;20041;-84
2021/05/29 09:53:31;;;;;;;16.58;6.05;;;12.60;99.90;;;;;;5007833;28;20060;-83
2021/05/29 09:55:57;;;;;;;20.40;5.87;;;12.60;99.90;;;;;;5009326;28;20510;-84
2021/05/29 09:58:50;;;;;;;19.58;5.45;;;12.80;99.90;;;;;;5008096;28;20483;-83
2021/05/29 10:01:34;;;;;;;23.40;6.18;;;13.00;99.90;;;;;;5007783;28;20049;-85
2021/05/29 10:04:00;;;;;;;29.15;7.07;;;13.00;99.90;;;;;;5007340;28;20109;-85
2021/05/29 10:06:25;;;;;;;18.73;5.43;;;12.90;99.90;;;;;;5009511;28;20550;-85
2021/05/29 10:08:51;;;;;;;28.75;8.65;;;12.80;99.90;;;;;;5008177;28;20037;-84
2021/05/29 10:11:17;;;;;;;23.40;6.68;;;12.70;99.90;;;;;;5007371;28;20030;-86
2021/05/29 10:13:42;;;;;;;23.77;6.85;;;12.70;99.90;;;;;;5007695;28;20113;-85
2021/05/29 10:16:08;;;;;;;19.33;6.47;;;12.80;99.90;;;;;;5007869;28;20036;-85
2021/05/29 10:18:34;;;;;;;25.85;6.72;;;12.90;99.90;;;;;;5007795;28;20030;-85
2021/05/29 10:21:00;;;;;;;24.73;7.10;;;12.90;99.90;;;;;;5008806;28;20032;-85
2021/05/29 10:23:26;;;;;;;22.73;6.40;;;12.80;99.90;;;;;;5009198;28;20044;-85
2021/05/29 10:25:54;;;;;;;19.33;6.85;;;13.20;99.90;;;;;;5008772;28;20081;-82
2021/05/29 10:28:20;;;;;;;23.65;5.53;;;13.80;99.90;;;;;;5009963;28;20398;-82
2021/05/29 10:30:47;;;;;;;21.58;5.38;;;14.30;99.90;;;;;;5012491;28;20087;-82
2021/05/29 10:33:19;;;;;;;18.63;6.13;;;14.40;99.90;;;;;;5026711;28;20033;-82
2021/05/29 10:35:46;;;;;;;23.70;5.50;;;14.40;99.90;;;;;;5011418;28;20079;-83
2021/05/29 10:38:14;;;;;;;20.83;6.60;;;14.00;99.90;;;;;;5012761;28;20025;-82
2021/05/29 10:40:47;;;;;;;27.10;6.20;;;13.80;99.90;;;;;;5011350;28;20107;-82
2021/05/29 10:43:21;;;;;;;24.85;7.03;;;13.90;99.90;;;;;;5011564;28;20058;-82
2021/05/29 10:45:52;;;;;;;20.95;6.10;;;14.00;99.90;;;;;;5011474;28;20034;-82
2021/05/29 10:48:20;;;;;;;22.35;5.82;;;14.10;99.90;;;;;;5012597;28;20495;-82
2021/05/29 10:50:56;;;;;;;17.02;5.28;;;13.90;99.90;;;;;;5012433;28;20030;-82
2021/05/29 10:53:47;;;;;;;24.77;5.85;;;13.90;99.90;;;;;;5012733;28;20052;-83
2021/05/29 10:56:15;;;;;;;17.10;6.00;;;14.10;99.90;;;;;;5011285;28;20014;-82
2021/05/29 10:59:07;;;;;;;17.92;5.18;;;14.30;99.90;;;;;;5012519;28;20018;-81
2021/05/29 11:01:37;;;;;;;40.40;20.73;;;14.50;99.90;;;;;;5012323;28;20434;-81
2021/05/29 11:04:18;;;;;;;27.35;6.07;;;14.60;99.90;;;;;;5012215;28;20021;-83
2021/05/29 11:06:45;;;;;;;16.65;5.05;;;14.70;99.90;;;;;;5010914;28;20026;-82
2021/05/29 11:09:12;;;;;;;30.58;7.68;;;15.10;99.90;;;;;;5011013;28;20056;-82
2021/05/29 11:14:52;;;;;;;23.08;5.38;;;16.00;99.90;;;;;;5012341;28;20026;-83
2021/05/29 11:17:22;;;;;;;19.45;6.75;;;16.10;99.90;;;;;;5010931;28;20025;-82
2021/05/29 11:20:09;;;;;;;30.48;8.90;;;15.60;99.90;;;;;;5010875;28;20117;-83
2021/05/29 11:22:46;;;;;;;20.08;8.52;;;15.70;99.90;;;;;;5010131;28;20057;-82
2021/05/29 11:25:15;;;;;;;21.13;6.78;;;15.60;99.90;;;;;;5010663;28;20022;-82
2021/05/29 11:27:42;;;;;;;25.73;8.02;;;15.40;99.90;;;;;;5010706;28;20030;-82
2021/05/29 11:30:20;;;;;;;24.40;9.40;;;15.60;99.90;;;;;;5010740;28;20054;-82
2021/05/29 11:35:45;;;;;;;25.70;6.43;;;15.70;99.90;;;;;;5011853;28;20040;-83
2021/05/29 11:38:38;;;;;;;23.35;6.07;;;15.70;99.90;;;;;;5011962;28;20080;-83
2021/05/29 11:41:08;;;;;;;27.52;5.63;;;15.90;99.90;;;;;;5011907;28;20026;-83
2021/05/29 11:43:54;;;;;;;24.70;7.13;;;15.70;99.90;;;;;;5012047;28;20494;-83
2021/05/29 11:46:30;;;;;;;21.40;6.28;;;16.20;99.90;;;;;;5012014;28;20022;-83
2021/05/29 11:49:01;;;;;;;29.98;6.40;;;16.40;99.90;;;;;;5011845;28;20484;-84
2021/05/29 11:51:29;;;;;;;19.35;5.05;;;16.80;99.90;;;;;;5010349;28;20038;-83
2021/05/29 11:54:19;;;;;;;20.17;5.75;;;17.00;99.90;;;;;;5011761;28;20022;-83
2021/05/29 11:56:52;;;;;;;24.30;6.88;;;17.10;99.90;;;;;;5027050;28;20117;-83
2021/05/29 11:59:21;;;;;;;20.25;5.68;;;17.30;99.90;;;;;;5010738;28;20022;-84
2021/05/29 12:01:51;;;;;;;19.23;5.07;;;17.40;99.90;;;;;;5010137;28;20044;-84
2021/05/29 12:04:19;;;;;;;20.40;5.25;;;17.10;99.90;;;;;;5010183;28;20121;-84
2021/05/29 12:06:48;;;;;;;23.13;6.32;;;17.20;99.90;;;;;;5010217;28;20034;-84
2021/05/29 12:09:28;;;;;;;21.08;5.38;;;17.60;99.90;;;;;;5010685;28;20605;-84
2021/05/29 12:12:06;;;;;;;15.25;4.88;;;18.20;99.90;;;;;;5010021;28;20029;-84
2021/05/29 12:14:42;;;;;;;23.17;5.43;;;18.40;99.90;;;;;;5010401;28;20494;-84
2021/05/29 12:17:08;;;;;;;24.23;5.13;;;19.10;99.90;;;;;;5012750;28;20657;-90
2021/05/29 12:19:52;;;;;;;;;;;;;;;;;;;;;
2021/05/29 12:22:25;;;;;;;20.75;5.30;;;19.20;99.90;;;;;;4992744;28;20517;-88
2021/05/29 12:25:01;;;;;;;18.23;5.20;;;19.60;99.90;;;;;;4991830;28;20034;-87
2021/05/29 12:27:34;;;;;;;22.80;5.38;;;19.00;99.90;;;;;;4992296;28;20026;-87
2021/05/29 12:30:38;;;;;;;24.58;5.45;;;18.60;99.90;;;;;;4992757;28;20491;-89
2021/05/29 12:33:38;;;;;;;15.90;4.53;;;18.00;99.90;;;;;;4991660;28;20102;-88
2021/05/29 12:36:12;;;;;;;19.95;4.93;;;18.50;99.90;;;;;;5030596;28;20034;-89
2021/05/29 12:39:02;;;;;;;20.08;5.07;;;19.30;99.90;;;;;;5015219;28;20108;-88
2021/05/29 12:41:37;;;;;;;21.30;5.03;;;19.40;99.90;;;;;;5014027;28;20030;-87
2021/05/29 12:44:12;;;;;;;17.10;4.85;;;19.70;99.90;;;;;;5013860;28;20022;-87
2021/05/29 12:46:41;;;;;;;12.82;4.35;;;20.20;99.90;;;;;;5013771;28;20025;-88
2021/05/29 12:49:19;;;;;;;;;;;;;;;;;;;;;
2021/05/29 12:51:47;;;;;;;28.13;5.60;;;20.10;99.90;;;;;;5015083;28;20036;-88
2021/05/29 12:54:14;;;;;;;20.33;5.65;;;20.00;99.90;;;;;;5015096;28;20018;-88
2021/05/29 12:56:56;;;;;;;17.75;4.82;;;20.10;99.90;;;;;;5013695;28;20026;-87
2021/05/29 12:59:30;;;;;;;21.42;5.22;;;20.70;99.90;;;;;;5014276;28;20026;-88
2021/05/29 13:10:29;;;;;;;21.80;4.40;;;20.80;99.90;;;;;;5001545;28;20053;-89